Latest Weather Observations for North Head

IDN60801

Issued at 1:03 am EST Tuesday 28 April 2015 (issued every 30 minutes, with the page automatically refreshed every 10 minutes)

About weather observations | Map of weather stations | Latest weather observations for NSW | Other Formats
Station Details ID: 066197 Name: NORTH HEAD Lat: -33.82 Lon: 151.30 Height: 90.0 m
Data from the previous 72 hours. | See also: Recent months for locations in New South Wales
Date/Time
EST
Temp
°C
App
Temp
°C
Dew
Point
Rel
Hum
%
Delta-T
°C
Wind Press
QNH
hPa
Press
MSL
hPa
Rain
since 9 am
mm
Dir
 
Spd
km/h
Gust
km/h
Spd
kts
Gust
kts
28/01:00am - - - - - WNW 11 15 6 8 - - -
28/12:30am - - - - - WNW 13 17 7 9 - - -
28/12:00am - - - - - WNW 13 15 7 8 - - -
 
Date/Time
EST
Temp
°C
App
Temp
°C
Dew
Point
Rel
Hum
%
Delta-T
°C
Wind Press
QNH
hPa
Press
MSL
hPa
Rain
since 9 am
mm
Dir
 
Spd
km/h
Gust
km/h
Spd
kts
Gust
kts
27/11:30pm - - - - - WNW 11 17 6 9 - - -
27/11:00pm - - - - - WNW 11 15 6 8 - - -
27/10:30pm - - - - - WNW 13 17 7 9 - - -
27/10:00pm - - - - - WNW 11 15 6 8 - - -
27/09:30pm - - - - - W 7 15 4 8 - - -
27/09:00pm - - - - - S 17 24 9 13 - - -
27/08:30pm - - - - - S 19 28 10 15 - - -
27/08:00pm - - - - - S 19 28 10 15 - - -
27/07:30pm - - - - - S 20 33 11 18 - - -
27/07:00pm - - - - - S 20 33 11 18 - - -
27/06:30pm - - - - - S 17 26 9 14 - - -
27/06:00pm - - - - - S 15 24 8 13 - - -
27/05:30pm - - - - - S 17 28 9 15 - - -
27/05:00pm - - - - - SSE 20 30 11 16 - - -
27/04:30pm - - - - - S 19 33 10 18 - - -
27/04:00pm - - - - - SSE 20 32 11 17 - - -
27/03:30pm - - - - - S 19 30 10 16 - - -
27/03:00pm - - - - - SSE 17 30 9 16 - - -
27/02:30pm - - - - - S 19 28 10 15 - - -
27/02:00pm - - - - - SSE 17 28 9 15 - - -
27/01:30pm - - - - - S 17 28 9 15 - - -
27/01:00pm - - - - - S 17 30 9 16 - - -
27/12:30pm - - - - - S 15 26 8 14 - - -
27/12:00pm - - - - - SSW 13 24 7 13 - - -
27/11:30am - - - - - SW 15 26 8 14 - - -
27/11:00am - - - - - SW 11 20 6 11 - - -
27/10:30am - - - - - WSW 15 20 8 11 - - -
27/10:00am - - - - - WSW 13 20 7 11 - - -
27/09:30am - - - - - W 17 28 9 15 - - -
27/09:00am - - - - - WSW 13 24 7 13 - - -
27/08:30am - - - - - WSW 17 28 9 15 - - -
27/08:00am - - - - - WSW 15 24 8 13 - - -
27/07:30am - - - - - W 15 20 8 11 - - -
27/07:00am - - - - - W 15 22 8 12 - - -
27/06:30am - - - - - W 15 22 8 12 - - -
27/06:00am - - - - - WSW 17 22 9 12 - - -
27/05:30am - - - - - WSW 15 26 8 14 - - -
27/05:00am - - - - - W 17 24 9 13 - - -
27/04:30am - - - - - WSW 17 20 9 11 - - -
27/04:00am - - - - - W 13 19 7 10 - - -
27/03:30am - - - - - WSW 17 26 9 14 - - -
27/03:00am - - - - - WSW 19 26 10 14 - - -
27/02:30am - - - - - SW 13 22 7 12 - - -
27/02:00am - - - - - SW 11 22 6 12 - - -
27/01:30am - - - - - SW 13 22 7 12 - - -
27/01:00am - - - - - SW 9 17 5 9 - - -
27/12:30am - - - - - SW 9 15 5 8 - - -
27/12:00am - - - - - WSW 7 13 4 7 - - -
 
Date/Time
EST
Temp
°C
App
Temp
°C
Dew
Point
Rel
Hum
%
Delta-T
°C
Wind Press
QNH
hPa
Press
MSL
hPa
Rain
since 9 am
mm
Dir
 
Spd
km/h
Gust
km/h
Spd
kts
Gust
kts
26/11:30pm - - - - - WSW 7 13 4 7 - - -
26/11:00pm - - - - - W 11 13 6 7 - - -
26/10:30pm - - - - - W 11 15 6 8 - - -
26/10:00pm - - - - - W 9 13 5 7 - - -
26/09:30pm - - - - - WSW 11 17 6 9 - - -
26/09:00pm - - - - - WSW 11 19 6 10 - - -
26/08:30pm - - - - - SW 13 20 7 11 - - -
26/08:00pm - - - - - SW 13 22 7 12 - - -
26/07:30pm - - - - - SSW 15 24 8 13 - - -
26/07:00pm - - - - - SW 17 30 9 16 - - -
26/06:30pm - - - - - SW 15 24 8 13 - - -
26/06:00pm - - - - - SW 15 24 8 13 - - -
26/05:30pm - - - - - SW 15 26 8 14 - - -
26/05:00pm - - - - - SW 13 22 7 12 - - -
26/04:30pm - - - - - SW 20 33 11 18 - - -
26/04:00pm - - - - - SW 20 32 11 17 - - -
26/03:30pm - - - - - SW 22 33 12 18 - - -
26/03:00pm - - - - - SW 28 46 15 25 - - -
26/02:49pm - - - - - SW 28 54 15 29 - - -
26/02:30pm - - - - - SW 28 39 15 21 - - -
26/02:00pm - - - - - SW 30 46 16 25 - - -
26/01:30pm - - - - - SW 28 46 15 25 - - -
26/01:00pm - - - - - SW 24 35 13 19 - - -
26/12:30pm - - - - - WSW 26 44 14 24 - - -
26/12:00pm - - - - - WSW 24 33 13 18 - - -
26/11:30am - - - - - W 24 33 13 18 - - -
26/11:00am - - - - - WSW 24 37 13 20 - - -
26/10:30am - - - - - W 22 32 12 17 - - -
26/10:00am - - - - - W 22 35 12 19 - - -
26/09:30am - - - - - W 22 39 12 21 - - -
26/09:00am - - - - - W 17 28 9 15 - - -
26/08:30am - - - - - W 22 37 12 20 - - -
26/08:00am - - - - - WSW 22 33 12 18 - - -
26/07:30am - - - - - W 20 28 11 15 - - -
26/07:00am - - - - - W 19 26 10 14 - - -
26/06:30am - - - - - W 15 22 8 12 - - -
26/06:00am - - - - - WSW 17 28 9 15 - - -
26/05:30am - - - - - WSW 20 32 11 17 - - -
26/05:00am - - - - - W 20 33 11 18 - - -
26/04:30am - - - - - W 20 32 11 17 - - -
26/04:00am - - - - - W 19 26 10 14 - - -
26/03:30am - - - - - WNW 17 24 9 13 - - -
26/03:00am - - - - - S 19 32 10 17 - - -
26/02:30am - - - - - SSW 13 20 7 11 - - -
26/02:00am - - - - - WNW 28 43 15 23 - - -
26/01:30am - - - - - NW 19 33 10 18 - - -
26/01:00am - - - - - W 17 24 9 13 - - -
26/12:30am - - - - - WNW 19 28 10 15 - - -
26/12:00am - - - - - WNW 11 15 6 8 - - -
 
Date/Time
EST
Temp
°C
App
Temp
°C
Dew
Point
Rel
Hum
%
Delta-T
°C
Wind Press
QNH
hPa
Press
MSL
hPa
Rain
since 9 am
mm
Dir
 
Spd
km/h
Gust
km/h
Spd
kts
Gust
kts
25/11:30pm - - - - - W 11 15 6 8 - - -
25/11:00pm - - - - - WSW 11 19 6 10 - - -
25/10:30pm - - - - - S 19 28 10 15 - - -
25/10:00pm - - - - - SSW 15 20 8 11 - - -
25/09:30pm - - - - - SW 17 32 9 17 - - -
25/09:00pm - - - - - WSW 15 24 8 13 - - -
25/08:30pm - - - - - SW 17 26 9 14 - - -
25/08:00pm - - - - - SW 19 28 10 15 - - -
25/07:30pm - - - - - SSW 13 24 7 13 - - -
25/07:00pm - - - - - E 6 13 3 7 - - -
25/06:30pm - - - - - ESE 7 19 4 10 - - -
25/06:00pm - - - - - ESE 13 28 7 15 - - -
25/05:30pm - - - - - SE 22 33 12 18 - - -
25/05:14pm - - - - - S 28 56 15 30 - - -
25/05:05pm - - - - - SSW 35 59 19 32 - - -
25/05:00pm - - - - - WSW 32 59 17 32 - - -
25/04:55pm - - - - - NNW 19 56 10 30 - - -
25/04:30pm - - - - - ENE 13 24 7 13 - - -
25/04:00pm - - - - - ENE 11 20 6 11 - - -
25/03:30pm - - - - - NE 13 20 7 11 - - -
25/03:00pm - - - - - ENE 9 17 5 9 - - -
25/02:30pm - - - - - NE 13 19 7 10 - - -
25/02:00pm - - - - - ENE 9 15 5 8 - - -
25/01:30pm - - - - - ENE 9 13 5 7 - - -
25/01:00pm - - - - - ENE 7 13 4 7 - - -
25/12:30pm - - - - - NNE 9 13 5 7 - - -
25/12:00pm - - - - - NE 9 15 5 8 - - -
25/11:30am - - - - - NNE 7 11 4 6 - - -
25/11:00am - - - - - NE 4 9 2 5 - - -
25/10:30am - - - - - WSW 2 4 1 2 - - -
25/10:00am - - - - - NW 7 11 4 6 - - -
25/09:30am - - - - - WNW 9 13 5 7 - - -
25/09:00am - - - - - NW 11 15 6 8 - - -
25/08:30am - - - - - WNW 11 13 6 7 - - -
25/08:00am - - - - - WNW 11 13 6 7 - - -
25/07:30am - - - - - WNW 11 13 6 7 - - -
25/07:00am - - - - - W 11 15 6 8 - - -
25/06:30am - - - - - W 13 15 7 8 - - -
25/06:00am - - - - - WNW 9 13 5 7 - - -
25/05:30am - - - - - WNW 13 15 7 8 - - -
25/05:00am - - - - - WNW 9 11 5 6 - - -
25/04:30am - - - - - WNW 13 17 7 9 - - -
25/04:00am - - - - - W 11 15 6 8 - - -
25/03:30am - - - - - W 11 15 6 8 - - -
25/03:00am - - - - - WNW 11 13 6 7 - - -
25/02:30am - - - - - WNW 9 11 5 6 - - -
25/02:00am - - - - - W 9 15 5 8 - - -
25/01:30am - - - - - WSW 7 11 4 6 - - -

Other Formats:

Comma delimited format used in spreadsheet applications
http://www.bom.gov.au/fwo/IDN60801/IDN60801.95768.axf

JavaScript Object Notation format (JSON) in row-major order
http://www.bom.gov.au/fwo/IDN60801/IDN60801.95768.json